createdAt,value
2022-10-23T00:02:02.913Z,19.20
2022-10-23T00:04:32.553Z,15.50
2022-10-23T00:07:01.834Z,14.80
2022-10-23T00:09:30.999Z,16.10
2022-10-23T00:12:02.631Z,14.30
2022-10-23T00:14:32.028Z,14.50
2022-10-23T00:17:01.700Z,14.53
2022-10-23T00:19:31.179Z,13.73
2022-10-23T00:22:00.580Z,14.30
2022-10-23T00:24:29.582Z,13.50
2022-10-23T00:26:58.370Z,13.90
2022-10-23T00:29:29.987Z,13.83
2022-10-23T00:31:59.063Z,14.77
2022-10-23T00:34:28.772Z,14.83
2022-10-23T00:36:59.180Z,14.83
2022-10-23T00:39:28.535Z,16.23
2022-10-23T00:41:57.759Z,15.87
2022-10-23T00:45:04.026Z,15.57
2022-10-23T00:47:35.015Z,15.80
2022-10-23T00:50:04.447Z,15.63
2022-10-23T00:52:35.651Z,14.40
2022-10-23T00:55:05.734Z,14.10
2022-10-23T00:57:34.883Z,14.17
2022-10-23T01:00:03.983Z,15.60
2022-10-23T01:02:34.963Z,13.93
2022-10-23T01:05:04.444Z,14.07
2022-10-23T01:07:39.820Z,13.60
2022-10-23T01:10:16.694Z,13.77
2022-10-23T01:12:52.674Z,15.20
2022-10-23T01:15:28.726Z,14.10
2022-10-23T01:18:05.843Z,15.17
2022-10-23T01:20:43.728Z,14.00
2022-10-23T01:23:48.777Z,15.63
2022-10-23T01:26:34.350Z,14.07
2022-10-23T01:29:11.519Z,15.43
2022-10-23T01:31:51.253Z,15.57
2022-10-23T01:34:27.989Z,16.70
2022-10-23T01:36:59.050Z,14.40
2022-10-23T01:39:33.194Z,14.63
2022-10-23T01:42:07.334Z,15.23
2022-10-23T01:44:41.723Z,15.37
2022-10-23T01:47:14.957Z,14.80
2022-10-23T01:49:57.893Z,14.90
2022-10-23T01:52:27.967Z,14.07
2022-10-23T01:55:02.534Z,14.27
2022-10-23T01:57:36.546Z,14.87
2022-10-23T02:00:11.585Z,13.23
2022-10-23T02:02:57.543Z,13.40
2022-10-23T02:05:34.755Z,13.23
2022-10-23T02:08:06.943Z,13.87
2022-10-23T02:10:45.945Z,12.13
2022-10-23T02:13:21.373Z,12.30
2022-10-23T02:15:59.525Z,12.73
2022-10-23T02:18:36.733Z,10.93
2022-10-23T02:21:11.959Z,11.47
2022-10-23T02:23:50.426Z,10.70
2022-10-23T02:26:24.871Z,11.90
2022-10-23T02:29:02.788Z,12.30
2022-10-23T02:31:36.100Z,11.17
2022-10-23T02:34:04.832Z,10.97
2022-10-23T02:36:34.535Z,11.00
2022-10-23T02:39:04.588Z,11.40
2022-10-23T02:41:41.633Z,9.67
2022-10-23T02:44:28.432Z,9.73
2022-10-23T02:47:12.081Z,8.80
2022-10-23T02:49:50.669Z,11.47
2022-10-23T02:52:25.893Z,12.87
2022-10-23T02:55:09.515Z,12.77
2022-10-23T02:57:54.888Z,9.77
2022-10-23T03:00:25.309Z,9.13
2022-10-23T03:03:00.350Z,10.87
2022-10-23T03:05:35.968Z,9.87
2022-10-23T03:08:06.332Z,10.30
2022-10-23T03:10:35.750Z,10.10
2022-10-23T03:13:04.975Z,10.23
2022-10-23T03:15:42.827Z,9.67
2022-10-23T03:18:16.621Z,9.43
2022-10-23T03:20:52.464Z,8.70
2022-10-23T03:23:24.767Z,8.40
2022-10-23T03:25:56.347Z,6.90
2022-10-23T03:28:45.646Z,6.83
2022-10-23T03:31:15.388Z,7.77
2022-10-23T03:33:47.706Z,8.60
2022-10-23T03:36:17.286Z,8.77
2022-10-23T03:38:46.919Z,9.20
2022-10-23T03:41:16.476Z,9.10
2022-10-23T03:43:46.193Z,10.40
2022-10-23T03:46:15.108Z,10.43
2022-10-23T03:48:44.515Z,10.30
2022-10-23T03:51:15.219Z,13.90
2022-10-23T03:53:44.374Z,11.30
2022-10-23T03:56:13.840Z,12.83
2022-10-23T03:58:43.227Z,12.50
2022-10-23T04:01:12.785Z,12.63
2022-10-23T04:03:42.362Z,13.70
2022-10-23T04:06:11.874Z,11.60
2022-10-23T04:08:45.266Z,13.03
2022-10-23T04:11:18.115Z,11.17
2022-10-23T04:13:48.803Z,8.90
2022-10-23T04:16:18.140Z,10.30
2022-10-23T04:18:47.714Z,9.77
2022-10-23T04:21:17.950Z,9.03
2022-10-23T04:23:48.629Z,8.67
2022-10-23T04:26:20.540Z,8.67
2022-10-23T04:28:51.385Z,8.43
2022-10-23T04:31:20.914Z,11.33
2022-10-23T04:33:58.733Z,11.20
2022-10-23T04:36:34.342Z,11.63
2022-10-23T04:39:15.407Z,10.33
2022-10-23T04:41:44.914Z,10.00
2022-10-23T04:44:18.667Z,10.77
2022-10-23T04:46:50.654Z,10.93
2022-10-23T04:49:20.037Z,11.47
2022-10-23T04:52:05.033Z,11.13
2022-10-23T04:54:54.769Z,10.93
2022-10-23T04:57:53.539Z,8.77
2022-10-23T05:00:26.832Z,9.50
2022-10-23T05:02:58.765Z,9.93
2022-10-23T05:05:33.910Z,9.80
2022-10-23T05:08:26.465Z,10.13
2022-10-23T05:11:15.967Z,8.80
2022-10-23T05:13:53.460Z,8.20
2022-10-23T05:16:34.306Z,9.07
2022-10-23T05:19:03.805Z,8.60
2022-10-23T05:21:36.974Z,7.93
2022-10-23T05:24:09.317Z,9.23
2022-10-23T05:26:40.179Z,8.40
2022-10-23T05:29:10.788Z,8.70
2022-10-23T05:31:41.224Z,9.60
2022-10-23T05:34:16.444Z,8.23
2022-10-23T05:36:49.697Z,8.23
2022-10-23T05:39:19.327Z,7.30
2022-10-23T05:41:51.783Z,6.67
2022-10-23T05:44:25.708Z,6.53
2022-10-23T05:47:06.106Z,7.80
2022-10-23T05:50:04.349Z,8.23
2022-10-23T05:52:36.501Z,8.13
2022-10-23T05:55:24.957Z,7.97
2022-10-23T05:58:17.060Z,8.37
2022-10-23T06:01:08.409Z,9.17
2022-10-23T06:03:57.855Z,8.63
2022-10-23T06:06:55.694Z,8.20
2022-10-23T06:09:27.573Z,9.27
2022-10-23T06:11:59.973Z,8.87
2022-10-23T06:14:31.889Z,9.20
2022-10-23T06:17:02.751Z,8.73
2022-10-23T06:19:36.080Z,9.47
2022-10-23T06:22:07.039Z,9.53
2022-10-23T06:24:48.779Z,10.10
2022-10-23T06:27:26.400Z,9.90
2022-10-23T06:30:01.595Z,10.97
2022-10-23T06:32:34.095Z,11.27
2022-10-23T06:35:13.395Z,11.53
2022-10-23T06:37:43.262Z,12.83
2022-10-23T06:40:20.679Z,13.20
2022-10-23T06:43:03.131Z,13.10
2022-10-23T06:45:53.903Z,11.77
2022-10-23T06:49:01.471Z,12.20
2022-10-23T06:51:34.438Z,14.30
2022-10-23T06:54:03.955Z,13.53
2022-10-23T06:56:53.706Z,14.83
2022-10-23T06:59:35.731Z,17.23
2022-10-23T07:02:07.020Z,16.97
2022-10-23T07:04:37.046Z,17.80
2022-10-23T07:07:14.275Z,18.20
2022-10-23T07:09:51.654Z,18.60
2022-10-23T07:12:25.710Z,18.53
2022-10-23T07:15:11.459Z,18.37
2022-10-23T07:17:43.125Z,19.07
2022-10-23T07:20:13.645Z,20.77
2022-10-23T07:22:43.517Z,21.47
2022-10-23T07:25:15.826Z,23.47
2022-10-23T07:27:46.171Z,23.03
2022-10-23T07:30:19.250Z,23.33
2022-10-23T07:32:56.146Z,24.23
2022-10-23T07:35:43.643Z,24.47
2022-10-23T07:38:16.616Z,21.37
2022-10-23T07:40:56.855Z,20.00
2022-10-23T07:43:26.901Z,20.03
2022-10-23T07:45:56.557Z,19.37
2022-10-23T07:48:37.068Z,17.57
2022-10-23T07:51:10.988Z,17.10
2022-10-23T07:53:53.930Z,15.63
2022-10-23T07:56:52.194Z,12.67
2022-10-23T07:59:43.844Z,12.57
2022-10-23T08:02:15.854Z,10.33
2022-10-23T08:04:50.604Z,10.87
2022-10-23T08:07:36.692Z,10.43
2022-10-23T08:10:07.650Z,10.23
2022-10-23T08:12:41.107Z,10.60
2022-10-23T08:15:12.205Z,10.70
2022-10-23T08:17:53.828Z,10.73
2022-10-23T08:20:39.616Z,10.13
2022-10-23T08:23:08.977Z,9.37
2022-10-23T08:25:39.698Z,7.70
2022-10-23T08:28:11.539Z,7.33
2022-10-23T08:30:52.570Z,6.78
2022-10-23T08:33:22.840Z,6.97
2022-10-23T08:35:53.739Z,6.13
2022-10-23T08:38:30.885Z,5.90
2022-10-23T08:41:02.992Z,7.05
2022-10-23T08:44:02.851Z,6.68
2022-10-23T08:46:45.973Z,6.53
2022-10-23T08:49:42.807Z,6.10
2022-10-23T08:52:23.836Z,6.75
2022-10-23T08:55:06.847Z,5.60
2022-10-23T08:57:42.868Z,5.95
2022-10-23T09:00:17.692Z,5.80
2022-10-23T09:02:49.395Z,5.57
2022-10-23T09:05:23.544Z,5.78
2022-10-23T09:08:20.853Z,5.63
2022-10-23T09:11:06.078Z,5.15
2022-10-23T09:13:57.663Z,5.32
2022-10-23T09:16:43.423Z,5.57
2022-10-23T09:19:19.410Z,5.10
2022-10-23T09:21:51.558Z,5.00
2022-10-23T09:24:25.274Z,4.85
2022-10-23T09:26:56.885Z,4.47
2022-10-23T09:29:43.959Z,4.25
2022-10-23T09:32:13.597Z,4.70
2022-10-23T09:34:53.546Z,5.20
2022-10-23T09:37:29.375Z,4.43
2022-10-23T09:40:21.570Z,3.80
2022-10-23T09:42:59.929Z,3.90
2022-10-23T09:45:33.013Z,3.95
2022-10-23T09:48:21.729Z,3.75
2022-10-23T09:50:54.669Z,3.72
2022-10-23T09:53:31.843Z,3.58
2022-10-23T09:56:05.290Z,4.05
2022-10-23T09:58:39.216Z,3.30
2022-10-23T10:01:09.198Z,3.33
2022-10-23T10:03:52.073Z,3.83
2022-10-23T10:06:28.453Z,2.70
2022-10-23T10:08:59.946Z,3.55
2022-10-23T10:11:37.460Z,2.95
2022-10-23T10:14:37.957Z,3.10
2022-10-23T10:17:13.937Z,2.92
2022-10-23T10:20:05.351Z,3.25
2022-10-23T10:22:42.429Z,2.60
2022-10-23T10:25:18.739Z,2.92
2022-10-23T10:27:59.055Z,2.58
2022-10-23T10:30:32.917Z,2.25
2022-10-23T10:33:08.311Z,2.30
2022-10-23T10:35:50.391Z,2.28
2022-10-23T10:38:38.822Z,2.47
2022-10-23T10:41:27.263Z,3.10
2022-10-23T10:44:19.748Z,3.90
2022-10-23T10:49:50.768Z,2.15
2022-10-23T10:52:49.291Z,2.40
2022-10-23T10:55:24.075Z,1.98
2022-10-23T10:58:00.135Z,2.03
2022-10-23T11:00:33.854Z,2.05
2022-10-23T11:03:06.536Z,2.13
2022-10-23T11:05:40.411Z,2.30
2022-10-23T11:08:16.998Z,2.65
2022-10-23T11:10:48.846Z,2.35
2022-10-23T11:13:27.940Z,2.45
2022-10-23T11:16:03.344Z,2.42
2022-10-23T11:19:03.103Z,3.20
2022-10-23T11:21:39.718Z,2.70
2022-10-23T11:24:50.136Z,2.95
2022-10-23T11:27:33.846Z,2.78
2022-10-23T11:30:21.291Z,2.22
2022-10-23T11:33:16.560Z,2.83
2022-10-23T11:36:01.243Z,2.72
2022-10-23T11:38:34.291Z,2.35
2022-10-23T11:41:07.425Z,2.15
2022-10-23T11:43:49.690Z,2.30
2022-10-23T11:46:35.699Z,2.70
2022-10-23T11:49:08.990Z,2.38
2022-10-23T11:51:40.062Z,2.30
2022-10-23T11:54:27.535Z,2.40
2022-10-23T11:57:10.335Z,2.47
2022-10-23T11:59:55.523Z,2.25
2022-10-23T12:02:38.642Z,2.40
2022-10-23T12:05:27.790Z,2.35
2022-10-23T12:08:00.096Z,2.35
2022-10-23T12:10:34.583Z,2.78
2022-10-23T12:13:07.126Z,2.53
2022-10-23T12:15:36.877Z,2.88
2022-10-23T12:18:17.449Z,2.60
2022-10-23T12:20:53.208Z,2.67
2022-10-23T12:23:42.124Z,2.90
2022-10-23T12:26:25.827Z,2.67
2022-10-23T12:29:04.265Z,2.63
2022-10-23T12:31:47.830Z,2.58
2022-10-23T12:34:32.567Z,2.40
2022-10-23T12:37:17.201Z,2.53
2022-10-23T12:39:54.684Z,2.38
2022-10-23T12:42:29.996Z,2.50
2022-10-23T12:45:04.088Z,2.80
2022-10-23T12:47:34.550Z,2.47
2022-10-23T12:50:04.308Z,2.38
2022-10-23T12:52:39.962Z,2.58
2022-10-23T12:55:16.583Z,2.13
2022-10-23T12:57:47.732Z,2.30
2022-10-23T13:00:19.348Z,2.30
2022-10-23T13:02:49.216Z,2.75
2022-10-23T13:05:21.040Z,2.42
2022-10-23T13:07:53.671Z,3.03
2022-10-23T13:10:33.913Z,3.40
2022-10-23T13:13:09.364Z,3.13
2022-10-23T13:15:41.121Z,2.90
2022-10-23T13:18:13.308Z,3.60
2022-10-23T13:20:45.847Z,3.90
2022-10-23T13:23:21.370Z,4.13
2022-10-23T13:25:56.827Z,3.55
2022-10-23T13:28:30.089Z,3.60
2022-10-23T13:31:21.475Z,3.72
2022-10-23T13:33:54.252Z,3.63
2022-10-23T13:36:25.478Z,3.40
2022-10-23T13:39:06.303Z,3.60
2022-10-23T13:41:43.963Z,3.15
2022-10-23T13:44:17.331Z,3.78
2022-10-23T13:46:48.746Z,3.80
2022-10-23T13:49:19.755Z,3.80
2022-10-23T13:51:53.435Z,3.47
2022-10-23T13:54:29.346Z,3.83
2022-10-23T13:56:59.843Z,3.97
2022-10-23T13:59:29.270Z,3.50
2022-10-23T14:02:01.313Z,3.90
2022-10-23T14:04:30.833Z,3.80
2022-10-23T14:07:00.815Z,3.97
2022-10-23T14:09:32.808Z,4.50
2022-10-23T14:12:02.574Z,5.63
2022-10-23T14:14:31.607Z,5.55
2022-10-23T14:17:01.243Z,5.32
2022-10-23T14:19:30.852Z,5.03
2022-10-23T14:22:00.203Z,4.25
2022-10-23T14:24:30.698Z,4.93
2022-10-23T14:27:00.186Z,4.43
2022-10-23T14:29:29.718Z,4.85
2022-10-23T14:32:00.064Z,4.97
2022-10-23T14:34:30.238Z,4.95
2022-10-23T14:37:15.163Z,5.47
2022-10-23T14:39:49.984Z,4.85
2022-10-23T14:42:20.197Z,4.40
2022-10-23T14:44:50.410Z,5.13
2022-10-23T14:47:21.031Z,5.38
2022-10-23T14:49:54.054Z,6.63
2022-10-23T14:52:24.097Z,10.52
2022-10-23T14:54:55.995Z,8.57
2022-10-23T14:57:27.309Z,7.60
2022-10-23T14:59:56.914Z,9.32
2022-10-23T15:02:26.157Z,9.32
2022-10-23T15:04:55.505Z,10.90
2022-10-23T15:07:24.824Z,12.07
2022-10-23T15:09:55.890Z,10.43
2022-10-23T15:12:26.116Z,8.45
2022-10-23T15:14:55.518Z,4.68
2022-10-23T15:17:24.745Z,5.00
2022-10-23T15:19:54.261Z,4.57
2022-10-23T15:22:23.517Z,4.57
2022-10-23T15:24:53.441Z,4.75
2022-10-23T15:27:23.753Z,5.50
2022-10-23T15:29:54.101Z,5.17
2022-10-23T15:32:23.329Z,6.10
2022-10-23T15:34:54.550Z,5.10
2022-10-23T15:37:24.501Z,5.10
2022-10-23T15:39:56.144Z,5.90
2022-10-23T15:42:29.456Z,5.70
2022-10-23T15:44:59.221Z,6.43
2022-10-23T15:47:28.486Z,8.17
2022-10-23T15:49:57.984Z,7.80
2022-10-23T15:52:27.358Z,7.33
2022-10-23T15:54:56.377Z,7.70
2022-10-23T15:57:27.280Z,6.40
2022-10-23T15:59:58.541Z,9.00
2022-10-23T16:02:28.322Z,8.17
2022-10-23T16:04:58.009Z,8.73
2022-10-23T16:07:27.403Z,7.00
2022-10-23T16:09:57.380Z,6.87
2022-10-23T16:12:27.652Z,7.40
2022-10-23T16:14:58.599Z,6.97
2022-10-23T16:17:27.908Z,6.53
2022-10-23T16:19:57.376Z,7.33
2022-10-23T16:22:27.884Z,7.27
2022-10-23T16:24:57.984Z,8.43
2022-10-23T16:27:27.961Z,7.33
2022-10-23T16:29:59.327Z,10.70
2022-10-23T16:32:28.965Z,8.90
2022-10-23T16:34:58.616Z,8.30
2022-10-23T16:37:28.684Z,9.37
2022-10-23T16:40:05.596Z,7.73
2022-10-23T16:43:05.349Z,7.33
2022-10-23T16:45:40.183Z,10.00
2022-10-23T16:48:10.019Z,8.60
2022-10-23T16:50:41.530Z,27.57
2022-10-23T16:53:11.747Z,17.13
2022-10-23T16:55:43.088Z,10.50
2022-10-23T16:58:13.343Z,10.07
2022-10-23T17:00:45.013Z,9.03
2022-10-23T17:03:16.409Z,9.97
2022-10-23T17:05:46.503Z,8.67
2022-10-23T17:08:17.808Z,10.10
2022-10-23T17:10:47.975Z,9.30
2022-10-23T17:13:17.768Z,9.87
2022-10-23T17:15:49.125Z,12.77
2022-10-23T17:18:19.906Z,14.87
2022-10-23T17:20:54.887Z,15.90
2022-10-23T17:23:26.052Z,12.97
2022-10-23T17:25:57.434Z,9.67
2022-10-23T17:28:29.103Z,10.50
2022-10-23T17:31:01.653Z,13.27
2022-10-23T17:33:31.822Z,17.37
2022-10-23T17:36:04.557Z,17.20
2022-10-23T17:38:38.750Z,17.37
2022-10-23T17:41:10.958Z,13.70
2022-10-23T17:43:41.074Z,16.93
2022-10-23T17:46:14.673Z,16.80
2022-10-23T17:48:45.690Z,13.07
2022-10-23T17:51:17.874Z,14.00
2022-10-23T17:53:49.792Z,15.47
2022-10-23T17:56:23.753Z,23.37
2022-10-23T17:58:55.291Z,23.63
2022-10-23T18:01:29.879Z,18.37
2022-10-23T18:04:03.769Z,15.53
2022-10-23T18:06:36.416Z,16.47
2022-10-23T18:09:08.601Z,20.73
2022-10-23T18:11:45.379Z,25.37
2022-10-23T18:14:23.084Z,25.13
2022-10-23T18:17:00.231Z,21.43
2022-10-23T18:19:34.631Z,20.30
2022-10-23T18:22:04.449Z,20.53
2022-10-23T18:24:37.013Z,19.87
2022-10-23T18:27:07.470Z,17.33
2022-10-23T18:29:41.340Z,19.23
2022-10-23T18:32:13.440Z,17.63
2022-10-23T18:34:44.234Z,18.70
2022-10-23T18:37:16.208Z,16.80
2022-10-23T18:39:47.248Z,15.60
2022-10-23T18:42:19.281Z,15.80
2022-10-23T18:44:52.803Z,17.07
2022-10-23T18:47:24.893Z,16.20
2022-10-23T18:49:55.192Z,15.67
2022-10-23T18:52:26.989Z,17.17
2022-10-23T18:54:56.940Z,14.70
2022-10-23T18:57:29.103Z,16.13
2022-10-23T19:00:04.802Z,15.27
2022-10-23T19:02:37.753Z,15.50
2022-10-23T19:05:09.101Z,14.97
2022-10-23T19:07:40.465Z,15.30
2022-10-23T19:10:19.296Z,21.73
2022-10-23T19:12:50.659Z,17.07
2022-10-23T19:15:22.086Z,15.17
2022-10-23T19:17:56.680Z,16.37
2022-10-23T19:23:03.960Z,15.17
2022-10-23T19:25:44.291Z,15.50
2022-10-23T19:28:15.067Z,15.33
2022-10-23T19:30:45.823Z,14.73
2022-10-23T19:33:18.875Z,16.23
2022-10-23T19:35:50.128Z,16.90
2022-10-23T19:38:24.063Z,16.30
2022-10-23T19:40:57.616Z,15.47
2022-10-23T19:43:31.492Z,15.17
2022-10-23T19:46:07.863Z,14.60
2022-10-23T19:48:48.570Z,14.37
2022-10-23T19:51:26.139Z,14.00
2022-10-23T19:53:58.072Z,13.97
2022-10-23T19:56:34.098Z,13.20
2022-10-23T19:59:09.298Z,13.47
2022-10-23T20:01:45.036Z,12.90
2022-10-23T20:04:21.984Z,11.87
2022-10-23T20:07:00.801Z,11.87
2022-10-23T20:09:32.917Z,11.37
2022-10-23T20:12:04.656Z,11.13
2022-10-23T20:14:37.886Z,11.77
2022-10-23T20:17:08.189Z,11.33
2022-10-23T20:19:41.855Z,10.93
2022-10-23T20:22:12.473Z,12.13
2022-10-23T20:24:43.190Z,11.33
2022-10-23T20:27:15.493Z,11.20
2022-10-23T20:29:45.882Z,11.03
2022-10-23T20:32:19.886Z,12.10
2022-10-23T20:34:53.293Z,11.70
2022-10-23T20:37:23.605Z,11.70
2022-10-23T20:39:53.930Z,12.80
2022-10-23T20:42:24.310Z,12.70
2022-10-23T20:44:54.341Z,12.43
2022-10-23T20:47:25.570Z,12.93
2022-10-23T20:49:57.897Z,13.67
2022-10-23T20:52:30.460Z,12.83
2022-10-23T20:55:01.641Z,13.77
2022-10-23T20:57:31.581Z,12.27
2022-10-23T21:00:03.536Z,11.97
2022-10-23T21:02:35.010Z,12.70
2022-10-23T21:05:07.993Z,12.73
2022-10-23T21:07:37.758Z,13.53
2022-10-23T21:10:08.646Z,13.37
2022-10-23T21:12:38.248Z,13.60
2022-10-23T21:15:09.109Z,12.70
2022-10-23T21:17:41.080Z,11.67
2022-10-23T21:20:13.491Z,12.37
2022-10-23T21:22:43.115Z,12.40
2022-10-23T21:25:13.161Z,11.83
2022-10-23T21:27:43.695Z,12.73
2022-10-23T21:30:14.632Z,12.07
2022-10-23T21:32:45.757Z,12.87
2022-10-23T21:35:17.871Z,13.60
2022-10-23T21:37:47.988Z,13.53
2022-10-23T21:40:18.005Z,13.77
2022-10-23T21:42:48.300Z,14.07
2022-10-23T21:45:17.971Z,14.07
2022-10-23T21:47:47.329Z,13.97
2022-10-23T21:50:19.157Z,13.90
2022-10-23T21:52:53.752Z,14.93
2022-10-23T21:55:23.140Z,14.27
2022-10-23T21:57:52.760Z,14.20
2022-10-23T22:00:22.375Z,13.93
2022-10-23T22:02:52.013Z,14.53
2022-10-23T22:05:23.179Z,14.13
2022-10-23T22:07:53.017Z,14.60
2022-10-23T22:10:22.536Z,14.90
2022-10-23T22:12:52.483Z,15.10
2022-10-23T22:15:22.616Z,15.03
2022-10-23T22:17:52.644Z,15.53
2022-10-23T22:20:23.911Z,14.90
2022-10-23T22:22:53.579Z,15.07
2022-10-23T22:25:23.614Z,15.50
2022-10-23T22:27:53.337Z,17.10
2022-10-23T22:30:24.625Z,16.53
2022-10-23T22:32:54.914Z,15.50
2022-10-23T22:35:26.684Z,17.93
2022-10-23T22:37:56.699Z,16.83
2022-10-23T22:40:26.175Z,16.87
2022-10-23T22:42:55.950Z,16.00
2022-10-23T22:45:25.942Z,17.10
2022-10-23T22:47:55.805Z,17.40
2022-10-23T22:50:26.954Z,18.87
2022-10-23T22:52:56.242Z,17.57
2022-10-23T22:55:25.806Z,17.83
2022-10-23T22:57:54.797Z,17.10
2022-10-23T23:00:24.722Z,17.00
2022-10-23T23:02:54.163Z,16.00
2022-10-23T23:05:23.776Z,15.47
2022-10-23T23:07:57.485Z,15.80
2022-10-23T23:10:26.845Z,15.80
2022-10-23T23:12:56.198Z,16.43
2022-10-23T23:15:25.353Z,16.20
2022-10-23T23:17:55.582Z,16.60
2022-10-23T23:20:26.459Z,17.37
2022-10-23T23:22:59.177Z,17.60
2022-10-23T23:25:28.306Z,17.90
2022-10-23T23:27:59.354Z,14.70
2022-10-23T23:30:28.617Z,16.07
2022-10-23T23:32:57.661Z,16.47
2022-10-23T23:35:26.641Z,15.70
2022-10-23T23:37:57.497Z,15.60
2022-10-23T23:40:26.840Z,15.50
2022-10-23T23:42:57.820Z,16.97
2022-10-23T23:45:27.269Z,15.37
2022-10-23T23:47:57.481Z,15.73
2022-10-23T23:50:32.608Z,16.20
2022-10-23T23:53:06.061Z,15.23
2022-10-23T23:55:36.122Z,15.07
2022-10-23T23:58:05.496Z,15.53
